YSSY/SYD METAR and TAF weather

Enter ICAO airport designator
Station Type Date Time Source
YSSY METAR 2020/01/22 12:00 UTC NOAA

YSSY 221200Z 04003KT CAVOK 27/20 Q1006 FM1200 MOD TURB BLW 5000FT


Station Type Date Time Source
YSSY Decoded METAR 2020/01/22 12:00 UTC NOAA

Sydney Airport, Australia (YSSY) 33-57S 151-11E 3M
Jan 22, 2020 - 07:00 AM EST / 2020.01.22 1200 UTC
Wind: from the NE (040 degrees) at 3 MPH (3 KT):0
Visibility: greater than 7 mile(s):0
Temperature: 80 F (27 C)
Dew Point: 68 F (20 C)
Relative Humidity: 65%
Pressure (altimeter): 29.71 in. Hg (1006 hPa)
ob: YSSY 221200Z 04003KT CAVOK 27/20 Q1006 FM1200 MOD TURB BLW 5000FT
cycle: 12

Station Type Date Time Source
YSSY TAF 2020/01/22 12:33 UTC NOAA

TAF TAF YSSY 221105Z 2212/2318 35008KT CAVOK
FM222300 33020G35KT CAVOK
FM231100 34014KT CAVOK
FM231600 20010KT CAVOK PROB30 INTER 2312/2318 VRB25G40KT 2000 TSRA SCT010 SCT040CB

Example: see airport list